sensor_id;sensor_type;location;lat;lon;timestamp;P1;durP1;ratioP1;P2;durP2;ratioP2
17993;SDS011;9122;48.406;9.984;2023-04-03T00:01:06;6.10;;;5.57;;
17993;SDS011;9122;48.406;9.984;2023-04-03T00:03:50;5.77;;;5.30;;
17993;SDS011;9122;48.406;9.984;2023-04-03T00:06:35;5.87;;;5.47;;
17993;SDS011;9122;48.406;9.984;2023-04-03T00:09:20;4.77;;;4.47;;
17993;SDS011;9122;48.406;9.984;2023-04-03T00:12:04;5.00;;;4.50;;
17993;SDS011;9122;48.406;9.984;2023-04-03T00:14:49;4.93;;;4.53;;
17993;SDS011;9122;48.406;9.984;2023-04-03T00:17:33;5.00;;;4.60;;
17993;SDS011;9122;48.406;9.984;2023-04-03T00:20:18;5.43;;;5.03;;
17993;SDS011;9122;48.406;9.984;2023-04-03T00:23:02;5.20;;;4.80;;
17993;SDS011;9122;48.406;9.984;2023-04-03T00:25:47;5.70;;;5.30;;
17993;SDS011;9122;48.406;9.984;2023-04-03T00:28:31;5.50;;;5.10;;
17993;SDS011;9122;48.406;9.984;2023-04-03T00:31:16;5.77;;;5.37;;
17993;SDS011;9122;48.406;9.984;2023-04-03T00:34:00;5.43;;;5.03;;
17993;SDS011;9122;48.406;9.984;2023-04-03T00:36:45;5.53;;;5.03;;
17993;SDS011;9122;48.406;9.984;2023-04-03T00:39:29;5.90;;;5.50;;
17993;SDS011;9122;48.406;9.984;2023-04-03T00:42:13;5.53;;;5.03;;
17993;SDS011;9122;48.406;9.984;2023-04-03T00:47:44;5.63;;;5.20;;
17993;SDS011;9122;48.406;9.984;2023-04-03T00:50:28;5.13;;;4.73;;
17993;SDS011;9122;48.406;9.984;2023-04-03T00:53:16;5.50;;;5.00;;
17993;SDS011;9122;48.406;9.984;2023-04-03T00:56:04;5.40;;;5.00;;
17993;SDS011;9122;48.406;9.984;2023-04-03T01:01:45;4.97;;;4.53;;
17993;SDS011;9122;48.406;9.984;2023-04-03T01:04:34;5.37;;;4.97;;
17993;SDS011;9122;48.406;9.984;2023-04-03T01:07:24;4.60;;;4.30;;
17993;SDS011;9122;48.406;9.984;2023-04-03T01:10:14;4.87;;;4.57;;
17993;SDS011;9122;48.406;9.984;2023-04-03T01:13:00;4.90;;;4.60;;
17993;SDS011;9122;48.406;9.984;2023-04-03T01:15:45;4.63;;;4.23;;
17993;SDS011;9122;48.406;9.984;2023-04-03T01:18:29;4.40;;;4.07;;
17993;SDS011;9122;48.406;9.984;2023-04-03T01:21:42;4.70;;;4.40;;
17993;SDS011;9122;48.406;9.984;2023-04-03T01:27:16;4.60;;;4.30;;
17993;SDS011;9122;48.406;9.984;2023-04-03T01:30:01;4.40;;;4.00;;
17993;SDS011;9122;48.406;9.984;2023-04-03T01:32:49;4.23;;;3.93;;
17993;SDS011;9122;48.406;9.984;2023-04-03T01:35:34;4.20;;;3.90;;
17993;SDS011;9122;48.406;9.984;2023-04-03T01:38:18;4.40;;;4.10;;
17993;SDS011;9122;48.406;9.984;2023-04-03T01:41:03;4.37;;;4.07;;
17993;SDS011;9122;48.406;9.984;2023-04-03T01:43:48;3.37;;;3.17;;
17993;SDS011;9122;48.406;9.984;2023-04-03T01:46:32;4.17;;;3.80;;
17993;SDS011;9122;48.406;9.984;2023-04-03T01:49:17;3.83;;;3.50;;
17993;SDS011;9122;48.406;9.984;2023-04-03T01:52:01;3.83;;;3.53;;
17993;SDS011;9122;48.406;9.984;2023-04-03T01:54:48;3.90;;;3.60;;
17993;SDS011;9122;48.406;9.984;2023-04-03T01:57:34;4.10;;;3.80;;
17993;SDS011;9122;48.406;9.984;2023-04-03T02:00:18;4.13;;;3.60;;
17993;SDS011;9122;48.406;9.984;2023-04-03T02:03:03;4.10;;;3.80;;
17993;SDS011;9122;48.406;9.984;2023-04-03T02:05:48;4.50;;;4.20;;
17993;SDS011;9122;48.406;9.984;2023-04-03T02:08:33;5.37;;;4.97;;
17993;SDS011;9122;48.406;9.984;2023-04-03T02:11:18;5.13;;;4.33;;
17993;SDS011;9122;48.406;9.984;2023-04-03T02:14:03;4.53;;;4.13;;
17993;SDS011;9122;48.406;9.984;2023-04-03T02:16:47;4.87;;;4.50;;
17993;SDS011;9122;48.406;9.984;2023-04-03T02:19:32;4.83;;;4.43;;
17993;SDS011;9122;48.406;9.984;2023-04-03T02:22:16;4.50;;;4.20;;
17993;SDS011;9122;48.406;9.984;2023-04-03T02:25:01;4.37;;;4.07;;
17993;SDS011;9122;48.406;9.984;2023-04-03T02:27:46;5.33;;;4.83;;
17993;SDS011;9122;48.406;9.984;2023-04-03T02:30:30;4.63;;;4.33;;
17993;SDS011;9122;48.406;9.984;2023-04-03T02:33:15;4.97;;;4.57;;
17993;SDS011;9122;48.406;9.984;2023-04-03T02:35:59;4.60;;;4.23;;
17993;SDS011;9122;48.406;9.984;2023-04-03T02:38:44;4.40;;;4.10;;
17993;SDS011;9122;48.406;9.984;2023-04-03T02:41:29;5.10;;;4.70;;
17993;SDS011;9122;48.406;9.984;2023-04-03T02:44:18;4.90;;;4.50;;
17993;SDS011;9122;48.406;9.984;2023-04-03T02:47:03;5.27;;;4.83;;
17993;SDS011;9122;48.406;9.984;2023-04-03T02:49:47;5.03;;;4.73;;
17993;SDS011;9122;48.406;9.984;2023-04-03T02:52:32;5.03;;;4.67;;
17993;SDS011;9122;48.406;9.984;2023-04-03T02:55:16;5.13;;;4.73;;
17993;SDS011;9122;48.406;9.984;2023-04-03T02:58:01;5.50;;;5.00;;
17993;SDS011;9122;48.406;9.984;2023-04-03T03:00:47;4.87;;;4.57;;
17993;SDS011;9122;48.406;9.984;2023-04-03T03:03:31;5.60;;;5.10;;
17993;SDS011;9122;48.406;9.984;2023-04-03T03:06:16;4.80;;;4.40;;
17993;SDS011;9122;48.406;9.984;2023-04-03T03:09:01;4.80;;;4.50;;
17993;SDS011;9122;48.406;9.984;2023-04-03T03:11:45;4.43;;;4.10;;
17993;SDS011;9122;48.406;9.984;2023-04-03T03:14:29;4.60;;;4.30;;
17993;SDS011;9122;48.406;9.984;2023-04-03T03:17:14;4.40;;;4.10;;
17993;SDS011;9122;48.406;9.984;2023-04-03T03:19:58;4.40;;;4.03;;
17993;SDS011;9122;48.406;9.984;2023-04-03T03:22:43;3.43;;;3.23;;
17993;SDS011;9122;48.406;9.984;2023-04-03T03:25:28;3.53;;;3.23;;
17993;SDS011;9122;48.406;9.984;2023-04-03T03:28:12;3.23;;;3.03;;
17993;SDS011;9122;48.406;9.984;2023-04-03T03:30:57;2.70;;;2.50;;
17993;SDS011;9122;48.406;9.984;2023-04-03T03:33:43;2.93;;;2.70;;
17993;SDS011;9122;48.406;9.984;2023-04-03T03:36:27;3.10;;;2.90;;
17993;SDS011;9122;48.406;9.984;2023-04-03T03:39:12;3.07;;;2.83;;
17993;SDS011;9122;48.406;9.984;2023-04-03T03:41:56;4.37;;;3.60;;
17993;SDS011;9122;48.406;9.984;2023-04-03T03:44:41;2.80;;;2.60;;
17993;SDS011;9122;48.406;9.984;2023-04-03T03:47:25;2.97;;;2.77;;
17993;SDS011;9122;48.406;9.984;2023-04-03T03:50:10;3.00;;;2.80;;
17993;SDS011;9122;48.406;9.984;2023-04-03T03:52:55;3.20;;;2.87;;
17993;SDS011;9122;48.406;9.984;2023-04-03T03:55:39;3.40;;;3.10;;
17993;SDS011;9122;48.406;9.984;2023-04-03T03:58:24;3.13;;;2.93;;
17993;SDS011;9122;48.406;9.984;2023-04-03T04:01:08;3.20;;;3.00;;
17993;SDS011;9122;48.406;9.984;2023-04-03T04:03:53;2.77;;;2.57;;
17993;SDS011;9122;48.406;9.984;2023-04-03T04:06:38;3.33;;;3.10;;
17993;SDS011;9122;48.406;9.984;2023-04-03T04:09:23;3.60;;;3.40;;
17993;SDS011;9122;48.406;9.984;2023-04-03T04:12:07;3.10;;;2.80;;
17993;SDS011;9122;48.406;9.984;2023-04-03T04:14:51;2.93;;;2.73;;
17993;SDS011;9122;48.406;9.984;2023-04-03T04:17:36;3.27;;;3.00;;
17993;SDS011;9122;48.406;9.984;2023-04-03T04:20:21;3.50;;;3.20;;
17993;SDS011;9122;48.406;9.984;2023-04-03T04:23:05;3.30;;;3.03;;
17993;SDS011;9122;48.406;9.984;2023-04-03T04:25:50;3.23;;;2.93;;
17993;SDS011;9122;48.406;9.984;2023-04-03T04:28:34;2.90;;;2.70;;
17993;SDS011;9122;48.406;9.984;2023-04-03T04:31:19;3.20;;;3.00;;
17993;SDS011;9122;48.406;9.984;2023-04-03T04:34:03;3.27;;;3.07;;
17993;SDS011;9122;48.406;9.984;2023-04-03T04:36:47;3.03;;;2.83;;
17993;SDS011;9122;48.406;9.984;2023-04-03T04:39:31;3.67;;;3.30;;
17993;SDS011;9122;48.406;9.984;2023-04-03T04:42:17;3.47;;;3.23;;
17993;SDS011;9122;48.406;9.984;2023-04-03T04:45:01;3.80;;;3.50;;
17993;SDS011;9122;48.406;9.984;2023-04-03T04:47:46;3.93;;;3.63;;
17993;SDS011;9122;48.406;9.984;2023-04-03T04:50:30;3.63;;;3.37;;
17993;SDS011;9122;48.406;9.984;2023-04-03T04:53:15;3.23;;;3.03;;
17993;SDS011;9122;48.406;9.984;2023-04-03T04:55:59;3.53;;;3.33;;
17993;SDS011;9122;48.406;9.984;2023-04-03T04:58:43;3.50;;;3.20;;
17993;SDS011;9122;48.406;9.984;2023-04-03T05:01:28;3.57;;;3.37;;
17993;SDS011;9122;48.406;9.984;2023-04-03T05:04:12;3.33;;;3.13;;
17993;SDS011;9122;48.406;9.984;2023-04-03T05:06:57;3.60;;;3.30;;
17993;SDS011;9122;48.406;9.984;2023-04-03T05:09:41;3.73;;;3.50;;
17993;SDS011;9122;48.406;9.984;2023-04-03T05:12:26;3.43;;;3.23;;
17993;SDS011;9122;48.406;9.984;2023-04-03T05:15:10;3.83;;;3.53;;
17993;SDS011;9122;48.406;9.984;2023-04-03T05:17:55;3.80;;;3.50;;
17993;SDS011;9122;48.406;9.984;2023-04-03T05:20:39;3.30;;;3.10;;
17993;SDS011;9122;48.406;9.984;2023-04-03T05:23:24;3.80;;;3.50;;
17993;SDS011;9122;48.406;9.984;2023-04-03T05:26:08;3.13;;;2.93;;
17993;SDS011;9122;48.406;9.984;2023-04-03T05:28:53;4.47;;;4.07;;
17993;SDS011;9122;48.406;9.984;2023-04-03T05:31:37;4.03;;;3.73;;
17993;SDS011;9122;48.406;9.984;2023-04-03T05:34:21;3.53;;;3.33;;
17993;SDS011;9122;48.406;9.984;2023-04-03T05:37:06;3.43;;;3.23;;
17993;SDS011;9122;48.406;9.984;2023-04-03T05:39:51;3.70;;;3.40;;
17993;SDS011;9122;48.406;9.984;2023-04-03T05:42:35;3.70;;;3.43;;
17993;SDS011;9122;48.406;9.984;2023-04-03T05:45:19;3.40;;;3.20;;
17993;SDS011;9122;48.406;9.984;2023-04-03T05:48:04;4.03;;;3.50;;
17993;SDS011;9122;48.406;9.984;2023-04-03T05:50:48;3.80;;;3.50;;
17993;SDS011;9122;48.406;9.984;2023-04-03T05:53:39;3.83;;;3.50;;
17993;SDS011;9122;48.406;9.984;2023-04-03T05:56:23;3.90;;;3.60;;
17993;SDS011;9122;48.406;9.984;2023-04-03T05:59:08;3.53;;;3.30;;
17993;SDS011;9122;48.406;9.984;2023-04-03T06:01:52;3.90;;;3.60;;
17993;SDS011;9122;48.406;9.984;2023-04-03T06:04:37;3.73;;;3.53;;
17993;SDS011;9122;48.406;9.984;2023-04-03T06:07:23;3.80;;;3.50;;
17993;SDS011;9122;48.406;9.984;2023-04-03T06:10:12;3.97;;;3.67;;
17993;SDS011;9122;48.406;9.984;2023-04-03T06:12:57;4.00;;;3.70;;
17993;SDS011;9122;48.406;9.984;2023-04-03T06:15:41;4.23;;;3.93;;
17993;SDS011;9122;48.406;9.984;2023-04-03T06:18:26;4.37;;;4.07;;
17993;SDS011;9122;48.406;9.984;2023-04-03T06:21:11;3.73;;;3.43;;
17993;SDS011;9122;48.406;9.984;2023-04-03T06:23:55;4.10;;;3.80;;
17993;SDS011;9122;48.406;9.984;2023-04-03T06:26:40;4.80;;;4.40;;
17993;SDS011;9122;48.406;9.984;2023-04-03T06:29:25;3.97;;;3.67;;
17993;SDS011;9122;48.406;9.984;2023-04-03T06:32:09;4.23;;;3.93;;
17993;SDS011;9122;48.406;9.984;2023-04-03T06:34:54;4.00;;;3.70;;
17993;SDS011;9122;48.406;9.984;2023-04-03T06:37:39;4.27;;;3.97;;
17993;SDS011;9122;48.406;9.984;2023-04-03T06:40:24;4.23;;;3.77;;
17993;SDS011;9122;48.406;9.984;2023-04-03T06:43:09;4.27;;;3.97;;
17993;SDS011;9122;48.406;9.984;2023-04-03T06:45:55;6.37;;;4.00;;
17993;SDS011;9122;48.406;9.984;2023-04-03T06:48:39;4.53;;;4.23;;
17993;SDS011;9122;48.406;9.984;2023-04-03T06:51:25;5.20;;;4.80;;
17993;SDS011;9122;48.406;9.984;2023-04-03T06:54:11;4.03;;;3.73;;
17993;SDS011;9122;48.406;9.984;2023-04-03T06:56:56;4.63;;;4.33;;
17993;SDS011;9122;48.406;9.984;2023-04-03T06:59:41;4.10;;;3.80;;
17993;SDS011;9122;48.406;9.984;2023-04-03T07:02:25;4.53;;;4.13;;
17993;SDS011;9122;48.406;9.984;2023-04-03T07:05:10;4.03;;;3.73;;
17993;SDS011;9122;48.406;9.984;2023-04-03T07:07:55;4.37;;;4.07;;
17993;SDS011;9122;48.406;9.984;2023-04-03T07:10:39;4.20;;;3.90;;
17993;SDS011;9122;48.406;9.984;2023-04-03T07:13:24;4.37;;;3.97;;
17993;SDS011;9122;48.406;9.984;2023-04-03T07:16:09;4.10;;;3.80;;
17993;SDS011;9122;48.406;9.984;2023-04-03T07:18:53;4.37;;;3.97;;
17993;SDS011;9122;48.406;9.984;2023-04-03T07:21:38;3.93;;;3.63;;
17993;SDS011;9122;48.406;9.984;2023-04-03T07:24:22;4.17;;;3.87;;
17993;SDS011;9122;48.406;9.984;2023-04-03T07:27:07;5.30;;;4.10;;
17993;SDS011;9122;48.406;9.984;2023-04-03T07:29:52;7.40;;;4.60;;
17993;SDS011;9122;48.406;9.984;2023-04-03T07:32:37;4.07;;;3.77;;
17993;SDS011;9122;48.406;9.984;2023-04-03T07:35:21;4.67;;;4.27;;
17993;SDS011;9122;48.406;9.984;2023-04-03T07:38:06;4.80;;;4.40;;
17993;SDS011;9122;48.406;9.984;2023-04-03T07:40:51;4.30;;;3.90;;
17993;SDS011;9122;48.406;9.984;2023-04-03T07:43:36;4.53;;;4.13;;
17993;SDS011;9122;48.406;9.984;2023-04-03T07:46:20;5.30;;;4.20;;
17993;SDS011;9122;48.406;9.984;2023-04-03T07:49:05;4.80;;;4.40;;
17993;SDS011;9122;48.406;9.984;2023-04-03T07:51:50;4.57;;;4.17;;
17993;SDS011;9122;48.406;9.984;2023-04-03T07:54:35;4.80;;;4.30;;
17993;SDS011;9122;48.406;9.984;2023-04-03T07:57:19;4.27;;;3.97;;
17993;SDS011;9122;48.406;9.984;2023-04-03T08:00:04;4.33;;;4.03;;
17993;SDS011;9122;48.406;9.984;2023-04-03T08:02:50;4.67;;;4.20;;
17993;SDS011;9122;48.406;9.984;2023-04-03T08:05:39;5.03;;;4.30;;
17993;SDS011;9122;48.406;9.984;2023-04-03T08:08:24;4.43;;;4.03;;
17993;SDS011;9122;48.406;9.984;2023-04-03T08:11:11;6.53;;;4.47;;
17993;SDS011;9122;48.406;9.984;2023-04-03T08:13:55;5.60;;;4.40;;
17993;SDS011;9122;48.406;9.984;2023-04-03T08:16:40;5.10;;;4.40;;
17993;SDS011;9122;48.406;9.984;2023-04-03T08:19:27;8.63;;;4.33;;
17993;SDS011;9122;48.406;9.984;2023-04-03T08:22:12;4.93;;;4.53;;
17993;SDS011;9122;48.406;9.984;2023-04-03T08:24:56;5.73;;;5.23;;
17993;SDS011;9122;48.406;9.984;2023-04-03T08:27:41;5.20;;;4.40;;
17993;SDS011;9122;48.406;9.984;2023-04-03T08:30:25;4.47;;;4.17;;
17993;SDS011;9122;48.406;9.984;2023-04-03T08:33:10;4.60;;;4.20;;
17993;SDS011;9122;48.406;9.984;2023-04-03T08:35:54;5.10;;;4.60;;
17993;SDS011;9122;48.406;9.984;2023-04-03T08:38:43;4.53;;;4.20;;
17993;SDS011;9122;48.406;9.984;2023-04-03T08:41:34;6.03;;;4.80;;
17993;SDS011;9122;48.406;9.984;2023-04-03T08:50:16;5.80;;;5.40;;
17993;SDS011;9122;48.406;9.984;2023-04-03T08:53:03;6.20;;;5.60;;
17993;SDS011;9122;48.406;9.984;2023-04-03T08:55:50;4.93;;;4.63;;
17993;SDS011;9122;48.406;9.984;2023-04-03T08:58:56;5.27;;;4.83;;
17993;SDS011;9122;48.406;9.984;2023-04-03T09:01:44;5.10;;;4.70;;
17993;SDS011;9122;48.406;9.984;2023-04-03T09:04:30;5.33;;;4.93;;
17993;SDS011;9122;48.406;9.984;2023-04-03T09:07:20;5.13;;;4.53;;
17993;SDS011;9122;48.406;9.984;2023-04-03T09:10:15;5.63;;;4.73;;
17993;SDS011;9122;48.406;9.984;2023-04-03T09:16:14;4.60;;;4.30;;
17993;SDS011;9122;48.406;9.984;2023-04-03T09:22:18;5.73;;;5.33;;
17993;SDS011;9122;48.406;9.984;2023-04-03T09:25:25;4.97;;;4.63;;
17993;SDS011;9122;48.406;9.984;2023-04-03T09:28:21;6.37;;;5.10;;
17993;SDS011;9122;48.406;9.984;2023-04-03T09:31:12;5.30;;;4.70;;
17993;SDS011;9122;48.406;9.984;2023-04-03T09:34:02;5.70;;;4.40;;
17993;SDS011;9122;48.406;9.984;2023-04-03T09:36:51;5.17;;;4.77;;
17993;SDS011;9122;48.406;9.984;2023-04-03T09:39:53;4.90;;;4.60;;
17993;SDS011;9122;48.406;9.984;2023-04-03T09:42:40;5.10;;;4.70;;
17993;SDS011;9122;48.406;9.984;2023-04-03T09:45:27;4.77;;;4.47;;
17993;SDS011;9122;48.406;9.984;2023-04-03T09:51:02;5.10;;;4.80;;
17993;SDS011;9122;48.406;9.984;2023-04-03T09:53:47;5.87;;;5.37;;
17993;SDS011;9122;48.406;9.984;2023-04-03T09:56:31;5.27;;;4.80;;
17993;SDS011;9122;48.406;9.984;2023-04-03T09:59:18;5.33;;;4.97;;
17993;SDS011;9122;48.406;9.984;2023-04-03T10:02:20;4.40;;;4.10;;
17993;SDS011;9122;48.406;9.984;2023-04-03T10:08:26;5.10;;;4.70;;
17993;SDS011;9122;48.406;9.984;2023-04-03T10:11:12;5.80;;;5.23;;
17993;SDS011;9122;48.406;9.984;2023-04-03T10:14:00;5.73;;;5.10;;
17993;SDS011;9122;48.406;9.984;2023-04-03T10:34:06;5.00;;;4.50;;
17993;SDS011;9122;48.406;9.984;2023-04-03T10:37:08;5.00;;;4.50;;
17993;SDS011;9122;48.406;9.984;2023-04-03T10:46:01;4.07;;;3.77;;
17993;SDS011;9122;48.406;9.984;2023-04-03T10:57:23;4.03;;;3.67;;
17993;SDS011;9122;48.406;9.984;2023-04-03T11:00:20;4.50;;;4.20;;
17993;SDS011;9122;48.406;9.984;2023-04-03T11:03:31;4.57;;;4.23;;
17993;SDS011;9122;48.406;9.984;2023-04-03T11:06:20;5.13;;;4.73;;
17993;SDS011;9122;48.406;9.984;2023-04-03T11:09:30;4.37;;;4.07;;
17993;SDS011;9122;48.406;9.984;2023-04-03T11:12:18;14.30;;;9.23;;
17993;SDS011;9122;48.406;9.984;2023-04-03T11:15:12;4.80;;;4.30;;
17993;SDS011;9122;48.406;9.984;2023-04-03T11:18:08;7.80;;;6.73;;
17993;SDS011;9122;48.406;9.984;2023-04-03T11:21:01;5.83;;;5.23;;
17993;SDS011;9122;48.406;9.984;2023-04-03T11:23:53;7.17;;;6.47;;
17993;SDS011;9122;48.406;9.984;2023-04-03T11:26:41;9.20;;;8.30;;
17993;SDS011;9122;48.406;9.984;2023-04-03T11:29:35;5.83;;;5.33;;
17993;SDS011;9122;48.406;9.984;2023-04-03T11:35:24;5.90;;;5.17;;
17993;SDS011;9122;48.406;9.984;2023-04-03T11:38:13;4.70;;;4.40;;
17993;SDS011;9122;48.406;9.984;2023-04-03T11:41:27;4.90;;;4.50;;
17993;SDS011;9122;48.406;9.984;2023-04-03T11:44:29;5.57;;;5.17;;
17993;SDS011;9122;48.406;9.984;2023-04-03T11:53:25;7.53;;;4.43;;
17993;SDS011;9122;48.406;9.984;2023-04-03T12:01:56;4.63;;;4.23;;
17993;SDS011;9122;48.406;9.984;2023-04-03T12:04:46;10.03;;;8.63;;
17993;SDS011;9122;48.406;9.984;2023-04-03T12:19:37;4.97;;;4.53;;
17993;SDS011;9122;48.406;9.984;2023-04-03T12:22:27;6.07;;;5.60;;
17993;SDS011;9122;48.406;9.984;2023-04-03T12:28:36;4.77;;;4.37;;
17993;SDS011;9122;48.406;9.984;2023-04-03T12:31:22;4.47;;;4.10;;
17993;SDS011;9122;48.406;9.984;2023-04-03T12:34:30;4.10;;;3.70;;
17993;SDS011;9122;48.406;9.984;2023-04-03T12:46:44;4.23;;;3.70;;
17993;SDS011;9122;48.406;9.984;2023-04-03T12:49:41;3.83;;;3.57;;
17993;SDS011;9122;48.406;9.984;2023-04-03T12:52:33;4.50;;;4.07;;
17993;SDS011;9122;48.406;9.984;2023-04-03T12:55:24;3.93;;;3.63;;
17993;SDS011;9122;48.406;9.984;2023-04-03T12:58:22;3.87;;;3.47;;
17993;SDS011;9122;48.406;9.984;2023-04-03T13:03:57;3.37;;;3.10;;
17993;SDS011;9122;48.406;9.984;2023-04-03T13:06:42;3.93;;;3.63;;
17993;SDS011;9122;48.406;9.984;2023-04-03T13:09:31;3.60;;;3.33;;
17993;SDS011;9122;48.406;9.984;2023-04-03T13:12:16;3.40;;;3.10;;
17993;SDS011;9122;48.406;9.984;2023-04-03T13:15:02;3.40;;;3.20;;
17993;SDS011;9122;48.406;9.984;2023-04-03T13:18:01;3.40;;;3.20;;
17993;SDS011;9122;48.406;9.984;2023-04-03T13:20:46;5.43;;;4.90;;
17993;SDS011;9122;48.406;9.984;2023-04-03T13:23:33;3.40;;;3.20;;
17993;SDS011;9122;48.406;9.984;2023-04-03T13:26:20;3.30;;;3.00;;
17993;SDS011;9122;48.406;9.984;2023-04-03T13:29:28;3.67;;;3.47;;
17993;SDS011;9122;48.406;9.984;2023-04-03T13:32:18;3.80;;;3.50;;
17993;SDS011;9122;48.406;9.984;2023-04-03T13:35:24;3.57;;;3.27;;
17993;SDS011;9122;48.406;9.984;2023-04-03T13:41:02;3.97;;;3.30;;
17993;SDS011;9122;48.406;9.984;2023-04-03T13:43:49;3.40;;;3.20;;
17993;SDS011;9122;48.406;9.984;2023-04-03T13:46:33;3.63;;;3.33;;
17993;SDS011;9122;48.406;9.984;2023-04-03T13:55:31;3.93;;;3.60;;
17993;SDS011;9122;48.406;9.984;2023-04-03T13:58:24;4.67;;;3.63;;
17993;SDS011;9122;48.406;9.984;2023-04-03T14:03:58;3.40;;;3.20;;
17993;SDS011;9122;48.406;9.984;2023-04-03T14:06:45;3.80;;;3.33;;
17993;SDS011;9122;48.406;9.984;2023-04-03T14:09:30;2.97;;;2.77;;
17993;SDS011;9122;48.406;9.984;2023-04-03T14:12:16;3.60;;;3.30;;
17993;SDS011;9122;48.406;9.984;2023-04-03T14:15:02;3.50;;;3.20;;
17993;SDS011;9122;48.406;9.984;2023-04-03T14:17:49;3.53;;;3.33;;
17993;SDS011;9122;48.406;9.984;2023-04-03T14:20:36;3.13;;;2.87;;
17993;SDS011;9122;48.406;9.984;2023-04-03T14:23:21;3.20;;;3.00;;
17993;SDS011;9122;48.406;9.984;2023-04-03T14:26:39;3.43;;;3.10;;
17993;SDS011;9122;48.406;9.984;2023-04-03T14:29:16;3.50;;;3.20;;
17993;SDS011;9122;48.406;9.984;2023-04-03T14:32:01;4.00;;;3.00;;
17993;SDS011;9122;48.406;9.984;2023-04-03T14:34:46;2.70;;;2.60;;
17993;SDS011;9122;48.406;9.984;2023-04-03T14:37:31;2.80;;;2.60;;
17993;SDS011;9122;48.406;9.984;2023-04-03T14:40:18;3.10;;;2.80;;
17993;SDS011;9122;48.406;9.984;2023-04-03T14:43:05;2.80;;;2.60;;
17993;SDS011;9122;48.406;9.984;2023-04-03T14:45:53;6.17;;;4.10;;
17993;SDS011;9122;48.406;9.984;2023-04-03T14:48:39;7.80;;;5.17;;
17993;SDS011;9122;48.406;9.984;2023-04-03T14:51:23;6.57;;;4.67;;
17993;SDS011;9122;48.406;9.984;2023-04-03T14:54:16;14.33;;;7.60;;
17993;SDS011;9122;48.406;9.984;2023-04-03T14:57:04;4.47;;;4.13;;
17993;SDS011;9122;48.406;9.984;2023-04-03T14:59:55;3.93;;;3.23;;
17993;SDS011;9122;48.406;9.984;2023-04-03T15:02:39;3.87;;;3.60;;
17993;SDS011;9122;48.406;9.984;2023-04-03T15:05:24;3.30;;;3.00;;
17993;SDS011;9122;48.406;9.984;2023-04-03T15:08:20;3.13;;;2.63;;
17993;SDS011;9122;48.406;9.984;2023-04-03T15:11:08;3.13;;;2.80;;
17993;SDS011;9122;48.406;9.984;2023-04-03T15:13:54;4.03;;;3.07;;
17993;SDS011;9122;48.406;9.984;2023-04-03T15:16:38;3.23;;;3.03;;
17993;SDS011;9122;48.406;9.984;2023-04-03T15:19:23;3.07;;;2.87;;
17993;SDS011;9122;48.406;9.984;2023-04-03T15:22:20;3.63;;;3.17;;
17993;SDS011;9122;48.406;9.984;2023-04-03T15:25:05;3.10;;;2.90;;
17993;SDS011;9122;48.406;9.984;2023-04-03T15:27:50;3.17;;;2.90;;
17993;SDS011;9122;48.406;9.984;2023-04-03T15:30:36;2.80;;;2.60;;
17993;SDS011;9122;48.406;9.984;2023-04-03T15:33:22;3.63;;;3.00;;
17993;SDS011;9122;48.406;9.984;2023-04-03T15:36:07;2.80;;;2.60;;
17993;SDS011;9122;48.406;9.984;2023-04-03T15:38:51;3.73;;;2.50;;
17993;SDS011;9122;48.406;9.984;2023-04-03T15:41:36;2.67;;;2.47;;
17993;SDS011;9122;48.406;9.984;2023-04-03T15:44:21;3.10;;;2.90;;
17993;SDS011;9122;48.406;9.984;2023-04-03T15:47:05;2.73;;;2.50;;
17993;SDS011;9122;48.406;9.984;2023-04-03T15:49:50;2.37;;;2.27;;
17993;SDS011;9122;48.406;9.984;2023-04-03T15:52:35;2.77;;;2.57;;
17993;SDS011;9122;48.406;9.984;2023-04-03T15:55:20;3.03;;;2.83;;
17993;SDS011;9122;48.406;9.984;2023-04-03T15:58:08;2.97;;;2.60;;
17993;SDS011;9122;48.406;9.984;2023-04-03T16:00:54;2.90;;;2.70;;
17993;SDS011;9122;48.406;9.984;2023-04-03T16:03:39;2.70;;;2.50;;
17993;SDS011;9122;48.406;9.984;2023-04-03T16:06:29;2.60;;;2.40;;
17993;SDS011;9122;48.406;9.984;2023-04-03T16:09:14;2.63;;;2.43;;
17993;SDS011;9122;48.406;9.984;2023-04-03T16:11:58;3.00;;;2.70;;
17993;SDS011;9122;48.406;9.984;2023-04-03T16:14:44;2.37;;;2.13;;
17993;SDS011;9122;48.406;9.984;2023-04-03T16:17:28;1.90;;;1.80;;
17993;SDS011;9122;48.406;9.984;2023-04-03T16:20:13;2.50;;;2.30;;
17993;SDS011;9122;48.406;9.984;2023-04-03T16:22:58;2.30;;;2.10;;
17993;SDS011;9122;48.406;9.984;2023-04-03T16:25:44;2.90;;;2.40;;
17993;SDS011;9122;48.406;9.984;2023-04-03T16:28:29;3.10;;;2.90;;
17993;SDS011;9122;48.406;9.984;2023-04-03T16:31:14;2.70;;;2.50;;
17993;SDS011;9122;48.406;9.984;2023-04-03T16:34:00;3.43;;;3.07;;
17993;SDS011;9122;48.406;9.984;2023-04-03T16:36:44;4.70;;;2.77;;
17993;SDS011;9122;48.406;9.984;2023-04-03T16:39:28;2.73;;;2.53;;
17993;SDS011;9122;48.406;9.984;2023-04-03T16:42:13;2.80;;;2.60;;
17993;SDS011;9122;48.406;9.984;2023-04-03T16:44:58;2.60;;;2.40;;
17993;SDS011;9122;48.406;9.984;2023-04-03T16:47:44;3.23;;;3.03;;
17993;SDS011;9122;48.406;9.984;2023-04-03T16:50:28;3.10;;;2.80;;
17993;SDS011;9122;48.406;9.984;2023-04-03T16:53:13;2.60;;;2.40;;
17993;SDS011;9122;48.406;9.984;2023-04-03T16:55:58;2.97;;;2.77;;
17993;SDS011;9122;48.406;9.984;2023-04-03T16:58:42;3.70;;;2.77;;
17993;SDS011;9122;48.406;9.984;2023-04-03T17:01:26;3.00;;;2.80;;
17993;SDS011;9122;48.406;9.984;2023-04-03T17:04:10;3.87;;;2.83;;
17993;SDS011;9122;48.406;9.984;2023-04-03T17:06:56;2.90;;;2.70;;
17993;SDS011;9122;48.406;9.984;2023-04-03T17:09:49;3.10;;;2.90;;
17993;SDS011;9122;48.406;9.984;2023-04-03T17:12:34;2.50;;;2.30;;
17993;SDS011;9122;48.406;9.984;2023-04-03T17:15:19;2.87;;;2.63;;
17993;SDS011;9122;48.406;9.984;2023-04-03T17:18:03;2.80;;;2.60;;
17993;SDS011;9122;48.406;9.984;2023-04-03T17:20:48;3.40;;;3.03;;
17993;SDS011;9122;48.406;9.984;2023-04-03T17:23:33;2.90;;;2.53;;
17993;SDS011;9122;48.406;9.984;2023-04-03T17:26:20;2.40;;;2.30;;
17993;SDS011;9122;48.406;9.984;2023-04-03T17:29:05;2.83;;;2.67;;
17993;SDS011;9122;48.406;9.984;2023-04-03T17:31:49;2.37;;;2.17;;
17993;SDS011;9122;48.406;9.984;2023-04-03T17:34:33;2.27;;;2.10;;
17993;SDS011;9122;48.406;9.984;2023-04-03T17:37:19;2.73;;;2.50;;
17993;SDS011;9122;48.406;9.984;2023-04-03T17:40:04;2.70;;;2.50;;
17993;SDS011;9122;48.406;9.984;2023-04-03T17:42:49;3.00;;;2.70;;
17993;SDS011;9122;48.406;9.984;2023-04-03T17:45:33;3.00;;;2.80;;
17993;SDS011;9122;48.406;9.984;2023-04-03T17:48:18;3.10;;;2.73;;
17993;SDS011;9122;48.406;9.984;2023-04-03T17:51:10;2.87;;;2.67;;
17993;SDS011;9122;48.406;9.984;2023-04-03T17:53:59;2.90;;;2.70;;
17993;SDS011;9122;48.406;9.984;2023-04-03T17:56:44;2.83;;;2.47;;
17993;SDS011;9122;48.406;9.984;2023-04-03T17:59:30;2.73;;;2.53;;
17993;SDS011;9122;48.406;9.984;2023-04-03T18:02:18;3.03;;;2.77;;
17993;SDS011;9122;48.406;9.984;2023-04-03T18:05:02;2.70;;;2.43;;
17993;SDS011;9122;48.406;9.984;2023-04-03T18:07:47;2.63;;;2.43;;
17993;SDS011;9122;48.406;9.984;2023-04-03T18:10:34;3.03;;;2.77;;
17993;SDS011;9122;48.406;9.984;2023-04-03T18:13:19;3.00;;;2.80;;
17993;SDS011;9122;48.406;9.984;2023-04-03T18:16:05;3.00;;;2.70;;
17993;SDS011;9122;48.406;9.984;2023-04-03T18:18:51;3.27;;;2.97;;
17993;SDS011;9122;48.406;9.984;2023-04-03T18:21:35;3.17;;;2.87;;
17993;SDS011;9122;48.406;9.984;2023-04-03T18:24:20;3.30;;;3.10;;
17993;SDS011;9122;48.406;9.984;2023-04-03T18:27:10;2.73;;;2.53;;
17993;SDS011;9122;48.406;9.984;2023-04-03T18:29:58;3.40;;;2.90;;
17993;SDS011;9122;48.406;9.984;2023-04-03T18:32:45;3.70;;;3.40;;
17993;SDS011;9122;48.406;9.984;2023-04-03T18:35:30;3.30;;;3.00;;
17993;SDS011;9122;48.406;9.984;2023-04-03T18:38:14;2.80;;;2.60;;
17993;SDS011;9122;48.406;9.984;2023-04-03T18:40:59;3.10;;;2.90;;
17993;SDS011;9122;48.406;9.984;2023-04-03T18:43:45;3.23;;;2.93;;
17993;SDS011;9122;48.406;9.984;2023-04-03T18:46:30;3.23;;;2.80;;
17993;SDS011;9122;48.406;9.984;2023-04-03T18:49:15;3.43;;;3.13;;
17993;SDS011;9122;48.406;9.984;2023-04-03T18:52:00;3.13;;;2.93;;